Time;durP1;ratioP1;P1;durP2;ratioP2;P2;SDS_P1;SDS_P2;PMS_P1;PMS_P2;Temp;Humidity;BMP_temperature;BMP_pressure;BME280_temperature;BME280_humidity;BME280_pressure;Samples;Min_cycle;Max_cycle;Signal;HPM_P1;HPM_P2
2021/03/31 00:01:24;;;;;;;16.73;12.53;;;;;;;;;;5056530;28;20229;-60
2021/03/31 00:03:50;;;;;;;16.80;13.70;;;;;;;;;;5056328;28;20283;-58
2021/03/31 00:06:15;;;;;;;15.10;13.23;;;;;;;;;;5056653;28;20221;-59
2021/03/31 00:08:42;;;;;;;16.90;12.50;;;;;;;;;;5056253;28;20224;-59
2021/03/31 00:11:07;;;;;;;13.63;11.93;;;;;;;;;;5056619;28;20232;-60
2021/03/31 00:13:32;;;;;;;16.37;13.07;;;;;;;;;;5054983;28;20463;-60
2021/03/31 00:15:57;;;;;;;13.90;12.50;;;;;;;;;;5056313;28;20229;-59
2021/03/31 00:18:23;;;;;;;15.80;13.63;;;;;;;;;;5055348;28;20304;-59
2021/03/31 00:20:49;;;;;;;16.60;14.30;;;;;;;;;;5055742;28;20225;-60
2021/03/31 00:23:17;;;;;;;17.57;12.50;;;;;;;;;;5056177;28;20470;-60
2021/03/31 00:25:42;;;;;;;14.93;13.20;;;;;;;;;;5054849;28;20217;-59
2021/03/31 00:28:11;;;;;;;15.70;12.53;;;;;;;;;;5055351;28;20459;-59
2021/03/31 00:30:37;;;;;;;17.73;13.10;;;;;;;;;;5055714;28;20252;-59
2021/03/31 00:33:03;;;;;;;18.23;11.90;;;;;;;;;;5054854;28;20459;-59
2021/03/31 00:35:29;;;;;;;19.03;14.00;;;;;;;;;;5055749;28;20221;-59
2021/03/31 00:37:55;;;;;;;18.30;12.33;;;;;;;;;;5055909;28;20304;-59
2021/03/31 00:40:21;;;;;;;14.20;12.47;;;;;;;;;;5055797;28;20538;-59
2021/03/31 00:42:47;;;;;;;14.53;11.83;;;;;;;;;;5055353;28;20235;-60
2021/03/31 00:45:14;;;;;;;17.00;13.57;;;;;;;;;;5055687;28;20543;-59
2021/03/31 00:47:40;;;;;;;20.47;13.30;;;;;;;;;;5055351;28;20460;-59
2021/03/31 00:50:10;;;;;;;15.87;13.63;;;;;;;;;;5055808;28;20778;-59
2021/03/31 00:52:37;;;;;;;16.43;13.13;;;;;;;;;;5054998;28;20312;-59
2021/03/31 00:55:02;;;;;;;15.23;13.10;;;;;;;;;;5054780;28;20456;-58
2021/03/31 00:57:28;;;;;;;15.80;14.10;;;;;;;;;;5054631;28;20463;-59
2021/03/31 00:59:53;;;;;;;16.67;13.67;;;;;;;;;;5055044;28;20610;-59
2021/03/31 01:02:18;;;;;;;16.87;13.73;;;;;;;;;;5055415;28;20231;-59
2021/03/31 01:04:45;;;;;;;19.40;13.23;;;;;;;;;;5055171;28;20251;-59
2021/03/31 01:07:10;;;;;;;14.83;13.20;;;;;;;;;;5055460;28;20225;-59
2021/03/31 01:09:35;;;;;;;13.83;11.90;;;;;;;;;;5054906;28;20463;-60
2021/03/31 01:12:09;;;;;;;15.60;13.20;;;;;;;;;;5054314;28;20308;-59
2021/03/31 01:14:47;;;;;;;18.57;13.17;;;;;;;;;;5054919;28;20224;-59
2021/03/31 01:17:22;;;;;;;17.10;12.80;;;;;;;;;;5055305;28;20456;-59
2021/03/31 01:19:53;;;;;;;14.70;11.90;;;;;;;;;;5033832;28;20476;-59
2021/03/31 01:22:56;;;;;;;20.30;14.90;;;;;;;;;;5034410;28;20461;-59
2021/03/31 01:25:41;;;;;;;16.27;13.63;;;;;;;;;;5034859;28;20460;-59
2021/03/31 01:28:33;;;;;;;14.87;13.27;;;;;;;;;;5035252;28;20456;-61
2021/03/31 01:31:15;;;;;;;17.43;13.93;;;;;;;;;;5033861;28;20539;-60
2021/03/31 01:34:02;;;;;;;14.37;12.50;;;;;;;;;;5034088;28;20895;-60
2021/03/31 01:36:29;;;;;;;19.50;15.20;;;;;;;;;;5034365;28;20468;-59
2021/03/31 01:39:00;;;;;;;18.03;13.47;;;;;;;;;;5053817;28;20455;-59
2021/03/31 01:41:26;;;;;;;15.67;12.40;;;;;;;;;;5054499;28;20966;-58
2021/03/31 01:43:54;;;;;;;18.50;14.10;;;;;;;;;;5053479;28;20455;-59
2021/03/31 01:46:22;;;;;;;16.07;14.27;;;;;;;;;;5054479;28;20459;-60
2021/03/31 01:48:48;;;;;;;20.03;15.73;;;;;;;;;;5053459;28;20832;-58
2021/03/31 01:51:13;;;;;;;21.03;15.03;;;;;;;;;;5054420;28;20471;-59
2021/03/31 01:53:39;;;;;;;17.00;13.60;;;;;;;;;;5053169;28;20270;-58
2021/03/31 01:56:05;;;;;;;17.90;15.60;;;;;;;;;;5053576;28;20479;-59
2021/03/31 01:58:31;;;;;;;18.23;14.17;;;;;;;;;;5053527;28;20229;-59
2021/03/31 02:00:57;;;;;;;16.00;14.30;;;;;;;;;;5053035;28;20452;-59
2021/03/31 02:03:22;;;;;;;18.13;14.50;;;;;;;;;;5054297;28;20517;-59
2021/03/31 02:05:48;;;;;;;21.00;15.60;;;;;;;;;;5053044;28;20516;-59
2021/03/31 02:08:14;;;;;;;16.23;13.97;;;;;;;;;;5054498;28;20224;-59
2021/03/31 02:10:40;;;;;;;26.67;14.97;;;;;;;;;;5052796;28;20288;-59
2021/03/31 02:13:06;;;;;;;17.60;14.70;;;;;;;;;;5053048;28;20217;-59
2021/03/31 02:15:33;;;;;;;15.90;14.27;;;;;;;;;;5054330;28;20848;-58
2021/03/31 02:17:59;;;;;;;15.87;13.97;;;;;;;;;;5053721;28;20212;-59
2021/03/31 02:20:25;;;;;;;17.47;14.73;;;;;;;;;;5053243;28;20474;-60
2021/03/31 02:22:52;;;;;;;19.47;15.07;;;;;;;;;;5052936;28;20463;-59
2021/03/31 02:25:18;;;;;;;17.47;15.33;;;;;;;;;;5053192;28;20532;-60
2021/03/31 02:27:44;;;;;;;16.67;14.70;;;;;;;;;;5052681;28;20554;-59
2021/03/31 02:30:11;;;;;;;20.60;14.27;;;;;;;;;;5054029;28;20455;-60
2021/03/31 02:32:37;;;;;;;19.10;13.20;;;;;;;;;;5052605;28;20964;-60
2021/03/31 02:35:05;;;;;;;16.47;14.77;;;;;;;;;;5053045;28;20544;-61
2021/03/31 02:37:31;;;;;;;15.60;14.00;;;;;;;;;;5053000;28;20455;-60
2021/03/31 02:39:57;;;;;;;19.23;13.93;;;;;;;;;;5053398;28;20606;-60
2021/03/31 02:42:25;;;;;;;21.80;13.50;;;;;;;;;;5053764;28;20560;-60
2021/03/31 02:44:52;;;;;;;19.67;14.40;;;;;;;;;;5053295;28;20467;-59
2021/03/31 02:47:21;;;;;;;17.70;13.70;;;;;;;;;;5053790;28;20474;-60
2021/03/31 02:49:48;;;;;;;21.00;16.27;;;;;;;;;;5055690;28;20466;-60
2021/03/31 02:52:16;;;;;;;15.87;13.10;;;;;;;;;;5056941;28;20542;-60
2021/03/31 02:54:42;;;;;;;15.57;13.30;;;;;;;;;;5056563;28;20771;-60
2021/03/31 02:57:10;;;;;;;19.30;13.67;;;;;;;;;;5057705;28;20465;-59
2021/03/31 02:59:39;;;;;;;15.53;13.83;;;;;;;;;;5057747;28;20487;-60
2021/03/31 03:02:04;;;;;;;18.07;13.63;;;;;;;;;;5057408;28;20468;-59
2021/03/31 03:04:30;;;;;;;16.60;14.37;;;;;;;;;;5056911;28;20451;-59
2021/03/31 03:06:55;;;;;;;16.77;14.50;;;;;;;;;;5056288;28;20221;-59
2021/03/31 03:09:20;;;;;;;16.60;14.20;;;;;;;;;;5056900;28;20216;-59
2021/03/31 03:11:46;;;;;;;16.17;14.47;;;;;;;;;;5056341;28;20227;-59
2021/03/31 03:14:11;;;;;;;16.63;14.83;;;;;;;;;;5056805;28;20220;-59
2021/03/31 03:16:37;;;;;;;15.50;13.80;;;;;;;;;;5057623;28;20212;-59
2021/03/31 03:19:02;;;;;;;19.87;16.47;;;;;;;;;;5057054;28;20283;-59
2021/03/31 03:21:28;;;;;;;19.13;13.37;;;;;;;;;;5056403;28;20608;-59
2021/03/31 03:23:57;;;;;;;16.97;14.43;;;;;;;;;;5056941;28;20676;-59
2021/03/31 03:26:23;;;;;;;16.20;14.47;;;;;;;;;;5056442;28;20459;-59
2021/03/31 03:28:49;;;;;;;16.53;14.30;;;;;;;;;;5055928;28;20459;-60
2021/03/31 03:31:14;;;;;;;17.00;14.60;;;;;;;;;;5056343;28;20232;-59
2021/03/31 03:33:40;;;;;;;20.27;16.50;;;;;;;;;;5056213;28;20538;-60
2021/03/31 03:36:07;;;;;;;23.03;16.37;;;;;;;;;;5055742;28;20216;-60
2021/03/31 03:38:34;;;;;;;18.97;16.90;;;;;;;;;;5055995;28;20208;-60
2021/03/31 03:41:17;;;;;;;26.20;17.50;;;;;;;;;;5056327;28;20482;-60
2021/03/31 03:43:42;;;;;;;20.53;16.60;;;;;;;;;;5055649;28;20473;-60
2021/03/31 03:46:10;;;;;;;18.27;16.30;;;;;;;;;;5056871;28;20541;-59
2021/03/31 03:48:36;;;;;;;17.27;15.50;;;;;;;;;;5056942;28;20218;-59
2021/03/31 03:51:11;;;;;;;17.33;15.43;;;;;;;;;;5056261;28;20556;-59
2021/03/31 03:53:37;;;;;;;18.60;16.70;;;;;;;;;;5056851;28;20470;-59
2021/03/31 03:56:11;;;;;;;18.63;16.73;;;;;;;;;;5056370;28;20785;-58
2021/03/31 03:58:37;;;;;;;20.03;16.13;;;;;;;;;;5056714;28;20462;-58
2021/03/31 04:01:02;;;;;;;18.63;15.77;;;;;;;;;;5054680;28;20590;-58
2021/03/31 04:03:28;;;;;;;19.23;16.00;;;;;;;;;;5056809;28;20255;-58
2021/03/31 04:05:53;;;;;;;18.20;16.23;;;;;;;;;;5056260;28;20291;-59
2021/03/31 04:08:19;;;;;;;20.60;17.13;;;;;;;;;;5056441;28;20217;-59
2021/03/31 04:10:50;;;;;;;20.53;18.07;;;;;;;;;;5056046;28;20309;-59
2021/03/31 04:13:16;;;;;;;18.60;16.60;;;;;;;;;;5055385;28;20657;-59
2021/03/31 04:15:44;;;;;;;23.20;18.10;;;;;;;;;;5055488;28;20570;-59
2021/03/31 04:18:11;;;;;;;24.27;19.30;;;;;;;;;;5055213;28;20888;-59
2021/03/31 04:20:37;;;;;;;23.20;19.97;;;;;;;;;;5055205;28;20477;-59
2021/03/31 04:23:02;;;;;;;18.43;16.47;;;;;;;;;;5054738;28;20459;-59
2021/03/31 04:25:27;;;;;;;20.33;17.63;;;;;;;;;;5056343;28;20274;-59
2021/03/31 04:27:54;;;;;;;24.13;17.77;;;;;;;;;;5054715;28;20220;-59
2021/03/31 04:30:22;;;;;;;20.77;18.67;;;;;;;;;;5056313;28;20228;-58
2021/03/31 04:32:49;;;;;;;19.53;17.50;;;;;;;;;;5055515;28;20466;-59
2021/03/31 04:35:19;;;;;;;20.90;17.10;;;;;;;;;;5056049;28;20788;-59
2021/03/31 04:37:44;;;;;;;20.57;18.47;;;;;;;;;;5055929;28;20459;-59
2021/03/31 04:40:12;;;;;;;19.57;17.13;;;;;;;;;;5055390;28;21022;-59
2021/03/31 04:42:37;;;;;;;22.30;17.23;;;;;;;;;;5055756;28;20231;-59
2021/03/31 04:45:06;;;;;;;25.80;18.40;;;;;;;;;;5055629;28;20468;-59
2021/03/31 04:47:33;;;;;;;20.50;18.27;;;;;;;;;;5035764;28;20289;-58
2021/03/31 04:49:58;;;;;;;21.63;18.90;;;;;;;;;;5035308;28;20464;-58
2021/03/31 04:52:23;;;;;;;19.87;17.13;;;;;;;;;;5035551;28;20597;-59
2021/03/31 04:54:49;;;;;;;25.80;18.20;;;;;;;;;;5035401;28;20692;-60
2021/03/31 04:57:14;;;;;;;25.73;20.13;;;;;;;;;;5035877;28;20355;-59
2021/03/31 04:59:39;;;;;;;25.77;19.10;;;;;;;;;;5035572;28;20673;-60
2021/03/31 05:02:05;;;;;;;20.80;18.13;;;;;;;;;;5034983;28;20673;-60
2021/03/31 05:04:30;;;;;;;24.07;20.20;;;;;;;;;;5034652;28;20214;-59
2021/03/31 05:06:56;;;;;;;25.53;19.20;;;;;;;;;;5034919;28;20304;-60
2021/03/31 05:09:21;;;;;;;20.73;18.47;;;;;;;;;;5035608;28;20214;-59
2021/03/31 05:11:46;;;;;;;23.90;18.30;;;;;;;;;;5034888;28;20309;-59
2021/03/31 05:14:11;;;;;;;19.30;17.30;;;;;;;;;;5049883;28;20545;-59
2021/03/31 05:16:37;;;;;;;24.60;18.60;;;;;;;;;;5055238;28;20312;-59
2021/03/31 05:19:02;;;;;;;28.63;20.30;;;;;;;;;;5054739;28;20669;-59
2021/03/31 05:21:27;;;;;;;21.07;18.10;;;;;;;;;;5054988;28;20236;-59
2021/03/31 05:23:53;;;;;;;29.70;20.07;;;;;;;;;;5054727;28;20259;-59
2021/03/31 05:26:18;;;;;;;23.50;20.87;;;;;;;;;;5055018;28;20301;-59
2021/03/31 05:28:43;;;;;;;24.47;19.40;;;;;;;;;;5054052;28;20228;-58
2021/03/31 05:31:09;;;;;;;26.73;19.17;;;;;;;;;;5054432;28;20244;-59
2021/03/31 05:33:34;;;;;;;21.30;18.00;;;;;;;;;;5054799;28;20287;-59
2021/03/31 05:36:00;;;;;;;23.53;19.10;;;;;;;;;;5070008;28;20470;-59
2021/03/31 05:38:25;;;;;;;26.00;19.70;;;;;;;;;;5054671;28;20251;-58
2021/03/31 05:40:50;;;;;;;22.03;17.90;;;;;;;;;;5054263;28;20225;-60
2021/03/31 05:43:17;;;;;;;28.60;21.47;;;;;;;;;;5054715;28;20227;-59
2021/03/31 05:45:42;;;;;;;28.97;19.87;;;;;;;;;;5054428;28;20210;-59
2021/03/31 05:48:08;;;;;;;27.83;21.43;;;;;;;;;;5053340;28;20802;-59
2021/03/31 05:50:33;;;;;;;29.30;21.43;;;;;;;;;;5054269;28;20232;-59
2021/03/31 05:52:59;;;;;;;27.40;19.90;;;;;;;;;;5053155;28;20538;-60
2021/03/31 05:55:24;;;;;;;28.33;18.37;;;;;;;;;;5054563;28;20213;-59
2021/03/31 05:57:49;;;;;;;22.57;18.50;;;;;;;;;;5054031;28;20217;-61
2021/03/31 06:00:18;;;;;;;18.70;16.70;;;;;;;;;;5054277;28;20252;-59
2021/03/31 06:02:45;;;;;;;23.53;19.40;;;;;;;;;;5054385;28;20232;-59
2021/03/31 06:05:12;;;;;;;20.07;17.53;;;;;;;;;;5053824;28;20460;-59
2021/03/31 06:07:41;;;;;;;23.47;18.40;;;;;;;;;;5054205;28;20448;-59
2021/03/31 06:10:18;;;;;;;22.60;18.80;;;;;;;;;;5053611;28;20459;-59
2021/03/31 06:12:54;;;;;;;20.40;18.20;;;;;;;;;;5053975;28;20463;-59
2021/03/31 06:15:30;;;;;;;20.07;17.90;;;;;;;;;;5054170;28;20447;-59
2021/03/31 06:17:59;;;;;;;20.40;17.53;;;;;;;;;;5053822;28;20474;-59
2021/03/31 06:20:44;;;;;;;22.30;17.60;;;;;;;;;;5054136;28;20959;-59
2021/03/31 06:23:38;;;;;;;20.97;16.10;;;;;;;;;;5053485;28;20450;-59
2021/03/31 06:26:27;;;;;;;28.00;17.30;;;;;;;;;;5053630;28;20467;-60
2021/03/31 06:29:05;;;;;;;18.50;16.57;;;;;;;;;;5054354;28;20452;-58
2021/03/31 06:31:35;;;;;;;18.57;16.67;;;;;;;;;;5052703;28;20993;-59
2021/03/31 06:34:06;;;;;;;19.03;16.47;;;;;;;;;;5053705;28;20459;-59
2021/03/31 06:36:39;;;;;;;21.67;16.40;;;;;;;;;;5053922;28;20475;-58
2021/03/31 06:39:18;;;;;;;18.67;16.67;;;;;;;;;;5053415;28;20451;-59
2021/03/31 06:42:01;;;;;;;19.43;17.10;;;;;;;;;;5053274;28;20970;-59
2021/03/31 06:44:52;;;;;;;19.30;15.23;;;;;;;;;;5052405;28;20535;-59
2021/03/31 06:47:43;;;;;;;24.00;16.00;;;;;;;;;;5051803;28;20451;-59
2021/03/31 06:50:11;;;;;;;18.70;15.50;;;;;;;;;;5033495;28;20599;-59
2021/03/31 06:52:56;;;;;;;18.30;16.23;;;;;;;;;;5050144;28;20451;-59
2021/03/31 06:55:26;;;;;;;19.97;15.77;;;;;;;;;;5053385;28;20458;-60
2021/03/31 06:58:09;;;;;;;;;;;;;;;;;;;;;
2021/03/31 07:00:39;;;;;;;17.50;14.80;;;;;;;;;;5014785;28;20489;-65
2021/03/31 07:03:14;;;;;;;17.80;16.00;;;;;;;;;;5032005;28;20542;-63
2021/03/31 07:05:40;;;;;;;19.13;15.83;;;;;;;;;;5034556;28;20550;-63
2021/03/31 07:08:15;;;;;;;19.20;14.30;;;;;;;;;;5033769;28;20983;-63
2021/03/31 07:10:50;;;;;;;20.07;16.00;;;;;;;;;;5034817;28;20220;-66
2021/03/31 07:13:27;;;;;;;20.90;16.10;;;;;;;;;;5040244;28;20455;-63
2021/03/31 07:15:53;;;;;;;21.07;16.33;;;;;;;;;;5053606;28;20523;-63
2021/03/31 07:18:19;;;;;;;19.33;14.47;;;;;;;;;;5052900;28;20459;-63
2021/03/31 07:20:45;;;;;;;18.10;15.90;;;;;;;;;;5052324;28;20501;-63
2021/03/31 07:23:11;;;;;;;20.53;14.97;;;;;;;;;;5052176;28;20456;-62
2021/03/31 07:25:36;;;;;;;15.97;14.47;;;;;;;;;;5053501;28;20471;-63
2021/03/31 07:28:01;;;;;;;19.30;15.70;;;;;;;;;;5052514;28;20376;-63
2021/03/31 07:30:27;;;;;;;16.83;14.77;;;;;;;;;;5052287;28;20221;-62
2021/03/31 07:33:01;;;;;;;22.20;16.00;;;;;;;;;;5053096;28;20718;-63
2021/03/31 07:35:28;;;;;;;17.13;15.10;;;;;;;;;;5054528;28;20501;-63
2021/03/31 07:37:56;;;;;;;20.93;15.50;;;;;;;;;;5056798;28;20459;-63
2021/03/31 07:40:22;;;;;;;22.13;15.57;;;;;;;;;;5056592;28;20543;-63
2021/03/31 07:43:00;;;;;;;19.17;15.07;;;;;;;;;;5057129;28;20618;-63
2021/03/31 07:45:30;;;;;;;36.13;15.67;;;;;;;;;;5038690;28;20228;-64
2021/03/31 07:47:56;;;;;;;17.10;14.63;;;;;;;;;;5056887;28;20451;-63
2021/03/31 07:50:22;;;;;;;21.67;16.17;;;;;;;;;;5056242;28;20471;-64
2021/03/31 07:52:58;;;;;;;20.90;17.00;;;;;;;;;;5055900;28;20853;-62
2021/03/31 07:55:37;;;;;;;21.60;16.43;;;;;;;;;;5056343;28;20229;-62
2021/03/31 07:58:14;;;;;;;19.40;15.00;;;;;;;;;;5056463;28;21025;-63
2021/03/31 08:01:00;;;;;;;23.00;15.50;;;;;;;;;;5056310;28;20463;-62
2021/03/31 08:03:31;;;;;;;24.40;15.43;;;;;;;;;;5056262;28;21009;-64
2021/03/31 08:06:15;;;;;;;18.17;14.77;;;;;;;;;;5056661;28;20531;-63
2021/03/31 08:08:43;;;;;;;23.63;15.40;;;;;;;;;;5056173;28;20444;-63
2021/03/31 08:11:08;;;;;;;17.33;14.47;;;;;;;;;;5039636;28;20476;-63
2021/03/31 08:13:37;;;;;;;23.10;14.17;;;;;;;;;;5044963;28;20471;-63
2021/03/31 08:16:23;;;;;;;20.80;14.63;;;;;;;;;;5056354;28;20223;-63
2021/03/31 08:18:49;;;;;;;21.13;16.47;;;;;;;;;;5055821;28;20564;-63
2021/03/31 08:21:22;;;;;;;16.80;13.60;;;;;;;;;;5054857;28;20471;-63
2021/03/31 08:23:49;;;;;;;21.30;13.90;;;;;;;;;;5055885;28;20903;-63
2021/03/31 08:26:35;;;;;;;19.03;14.87;;;;;;;;;;5056219;28;20534;-62
2021/03/31 08:29:03;;;;;;;18.60;15.10;;;;;;;;;;5055706;28;20463;-62
2021/03/31 08:31:29;;;;;;;19.07;16.53;;;;;;;;;;5055921;28;20468;-63
2021/03/31 08:33:55;;;;;;;26.53;16.73;;;;;;;;;;5055359;28;20460;-63
2021/03/31 08:36:21;;;;;;;18.33;15.90;;;;;;;;;;5055804;28;20452;-62
2021/03/31 08:38:54;;;;;;;18.63;14.93;;;;;;;;;;5055251;28;20205;-62
2021/03/31 08:41:24;;;;;;;23.17;15.50;;;;;;;;;;5054372;28;20455;-62
2021/03/31 08:43:51;;;;;;;21.30;15.87;;;;;;;;;;5055303;28;20524;-62
2021/03/31 08:46:30;;;;;;;18.20;15.70;;;;;;;;;;5054875;28;20847;-62
2021/03/31 08:48:55;;;;;;;21.63;16.23;;;;;;;;;;5055269;28;20884;-63
2021/03/31 08:51:20;;;;;;;30.53;16.63;;;;;;;;;;5055019;28;20479;-63
2021/03/31 08:53:46;;;;;;;22.07;16.73;;;;;;;;;;5055195;28;20224;-62
2021/03/31 08:56:17;;;;;;;25.03;16.77;;;;;;;;;;5055552;28;20225;-62
2021/03/31 08:58:42;;;;;;;24.90;16.70;;;;;;;;;;5054958;28;20212;-62
2021/03/31 09:01:07;;;;;;;25.03;16.33;;;;;;;;;;5055326;28;20785;-62
2021/03/31 09:03:33;;;;;;;23.27;15.70;;;;;;;;;;5055352;28;20522;-63
2021/03/31 09:06:02;;;;;;;26.10;15.90;;;;;;;;;;5054938;28;20304;-62
2021/03/31 09:08:29;;;;;;;23.00;15.27;;;;;;;;;;5055377;28;20220;-63
2021/03/31 09:11:00;;;;;;;22.33;16.30;;;;;;;;;;5054126;28;20464;-63
2021/03/31 09:13:27;;;;;;;20.07;13.83;;;;;;;;;;5054605;28;20467;-63
2021/03/31 09:15:58;;;;;;;23.70;15.80;;;;;;;;;;5054294;28;20456;-63
2021/03/31 09:18:24;;;;;;;21.73;14.10;;;;;;;;;;5054663;28;20456;-63
2021/03/31 09:20:49;;;;;;;23.77;15.20;;;;;;;;;;5052986;28;20479;-63
2021/03/31 09:23:23;;;;;;;26.20;15.90;;;;;;;;;;5054743;28;20248;-63
2021/03/31 09:25:59;;;;;;;24.10;16.00;;;;;;;;;;5054215;28;20217;-63
2021/03/31 09:28:24;;;;;;;23.20;16.17;;;;;;;;;;5054829;28;20462;-63
2021/03/31 09:30:55;;;;;;;25.13;15.30;;;;;;;;;;5054235;28;20928;-63
2021/03/31 09:33:26;;;;;;;24.03;16.50;;;;;;;;;;5054846;28;20553;-63
2021/03/31 09:35:53;;;;;;;21.97;15.60;;;;;;;;;;5053433;28;20521;-61
2021/03/31 09:38:26;;;;;;;22.53;15.63;;;;;;;;;;5054448;28;20456;-62
2021/03/31 09:41:04;;;;;;;21.87;16.80;;;;;;;;;;5054163;28;20460;-62
2021/03/31 09:43:30;;;;;;;27.97;17.70;;;;;;;;;;5054518;28;20888;-62
2021/03/31 09:45:56;;;;;;;24.97;17.20;;;;;;;;;;5052964;28;20471;-62
2021/03/31 09:48:22;;;;;;;30.77;18.30;;;;;;;;;;5054704;28;20526;-62
2021/03/31 09:50:48;;;;;;;24.83;17.10;;;;;;;;;;5053831;28;20621;-62
2021/03/31 09:53:13;;;;;;;34.03;19.80;;;;;;;;;;5054447;28;20224;-62
2021/03/31 09:55:38;;;;;;;26.87;19.83;;;;;;;;;;5054447;28;20236;-63
2021/03/31 09:58:04;;;;;;;26.67;18.70;;;;;;;;;;5053066;28;20224;-62
2021/03/31 10:00:37;;;;;;;28.27;20.47;;;;;;;;;;5054268;28;20569;-63
2021/03/31 10:03:06;;;;;;;26.60;18.90;;;;;;;;;;5052892;28;20221;-63
2021/03/31 10:05:32;;;;;;;26.23;19.80;;;;;;;;;;5054098;28;20923;-63
2021/03/31 10:08:00;;;;;;;26.07;19.43;;;;;;;;;;5053078;28;20951;-63
2021/03/31 10:10:39;;;;;;;26.07;18.10;;;;;;;;;;5052063;28;20509;-62
2021/03/31 10:13:05;;;;;;;24.63;18.97;;;;;;;;;;5047603;28;20472;-62
2021/03/31 10:15:30;;;;;;;28.47;18.80;;;;;;;;;;5045112;28;20954;-62
2021/03/31 10:17:56;;;;;;;22.77;16.33;;;;;;;;;;5053377;28;20224;-63
2021/03/31 10:20:21;;;;;;;31.83;20.10;;;;;;;;;;5053791;28;20229;-63
2021/03/31 10:22:53;;;;;;;21.43;16.43;;;;;;;;;;5053303;28;20225;-61
2021/03/31 10:25:28;;;;;;;22.30;17.80;;;;;;;;;;5054002;28;20212;-63
2021/03/31 10:27:54;;;;;;;23.40;18.10;;;;;;;;;;5053181;28;20466;-63
2021/03/31 10:30:29;;;;;;;23.63;16.57;;;;;;;;;;5053775;28;20850;-63
2021/03/31 10:32:55;;;;;;;24.10;17.17;;;;;;;;;;5053354;28;20469;-62
2021/03/31 10:35:50;;;;;;;23.43;17.37;;;;;;;;;;5053683;28;20451;-63
2021/03/31 10:38:37;;;;;;;21.17;14.77;;;;;;;;;;5053392;28;20217;-63
2021/03/31 10:41:48;;;;;;;17.63;15.17;;;;;;;;;;5053181;28;20538;-63
2021/03/31 10:47:07;;;;;;;21.90;16.13;;;;;;;;;;5053036;28;20463;-63
2021/03/31 10:52:09;;;;;;;20.10;14.97;;;;;;;;;;5041482;28;20475;-62
2021/03/31 10:54:34;;;;;;;25.83;15.70;;;;;;;;;;5033811;28;20457;-62
2021/03/31 10:57:08;;;;;;;17.63;13.30;;;;;;;;;;5033035;28;20461;-62
2021/03/31 10:59:34;;;;;;;18.80;14.20;;;;;;;;;;5033590;28;20653;-62
2021/03/31 11:01:59;;;;;;;18.40;13.90;;;;;;;;;;5033021;28;20476;-63
2021/03/31 11:04:24;;;;;;;14.07;12.10;;;;;;;;;;5033592;28;20217;-62
2021/03/31 11:06:50;;;;;;;16.10;12.57;;;;;;;;;;5033672;28;20567;-63
2021/03/31 11:09:15;;;;;;;13.30;11.90;;;;;;;;;;5035101;28;20213;-62
2021/03/31 11:11:40;;;;;;;16.90;12.47;;;;;;;;;;5055736;28;20228;-63
2021/03/31 11:14:05;;;;;;;17.03;13.30;;;;;;;;;;5056932;28;20312;-63
2021/03/31 11:16:31;;;;;;;19.03;14.33;;;;;;;;;;5057398;28;20676;-62
2021/03/31 11:19:04;;;;;;;18.73;13.60;;;;;;;;;;5056919;28;20225;-62
2021/03/31 11:26:55;;;;;;;16.00;11.43;;;;;;;;;;5035055;28;20217;-62
2021/03/31 11:29:20;;;;;;;25.00;11.77;;;;;;;;;;5052497;28;20927;-62
2021/03/31 11:31:46;;;;;;;13.80;10.67;;;;;;;;;;5057042;28;20645;-63
2021/03/31 11:34:11;;;;;;;16.40;11.97;;;;;;;;;;5056717;28;20227;-63
2021/03/31 11:36:36;;;;;;;15.90;11.67;;;;;;;;;;5057062;28;20665;-63
2021/03/31 11:39:03;;;;;;;13.43;11.87;;;;;;;;;;5056610;28;20217;-63
2021/03/31 11:41:28;;;;;;;18.63;11.10;;;;;;;;;;5056947;28;20274;-63
2021/03/31 11:43:54;;;;;;;15.53;11.47;;;;;;;;;;5056841;28;20460;-63
2021/03/31 11:46:19;;;;;;;13.30;10.63;;;;;;;;;;5056472;28;20255;-64
2021/03/31 11:48:45;;;;;;;14.97;12.03;;;;;;;;;;5056852;28;20212;-63
2021/03/31 11:51:10;;;;;;;12.90;10.10;;;;;;;;;;5056183;28;20618;-63
2021/03/31 11:53:36;;;;;;;16.90;11.50;;;;;;;;;;5056822;28;20555;-63
2021/03/31 11:56:01;;;;;;;14.43;11.43;;;;;;;;;;5055432;28;20245;-63
2021/03/31 11:58:26;;;;;;;13.17;9.63;;;;;;;;;;5056449;28;20223;-63
2021/03/31 12:00:52;;;;;;;13.47;10.57;;;;;;;;;;5056567;28;20221;-63
2021/03/31 12:03:18;;;;;;;13.40;10.97;;;;;;;;;;5056153;28;20228;-63
2021/03/31 12:05:43;;;;;;;14.20;11.00;;;;;;;;;;5056482;28;20219;-63
2021/03/31 12:08:09;;;;;;;16.87;12.20;;;;;;;;;;5055515;28;20475;-63
2021/03/31 12:10:34;;;;;;;15.73;12.00;;;;;;;;;;5056172;28;20710;-63
2021/03/31 12:12:59;;;;;;;25.27;16.00;;;;;;;;;;5055790;28;20220;-64
2021/03/31 12:15:25;;;;;;;121.50;64.23;;;;;;;;;;5055736;28;20342;-63
2021/03/31 12:17:50;;;;;;;21.20;14.83;;;;;;;;;;5053443;28;20213;-64
2021/03/31 12:20:18;;;;;;;21.80;14.83;;;;;;;;;;5054558;28;21105;-63
2021/03/31 12:22:45;;;;;;;31.90;21.13;;;;;;;;;;5054537;28;20652;-63
2021/03/31 12:25:12;;;;;;;16.87;12.30;;;;;;;;;;5055454;28;20468;-63
2021/03/31 12:27:38;;;;;;;16.03;13.27;;;;;;;;;;5055150;28;20471;-63
2021/03/31 12:30:10;;;;;;;27.30;17.70;;;;;;;;;;5055548;28;20483;-63
2021/03/31 12:32:35;;;;;;;19.30;14.07;;;;;;;;;;5055871;28;20460;-63
2021/03/31 12:35:02;;;;;;;17.93;14.93;;;;;;;;;;5055376;28;20760;-63
2021/03/31 12:37:28;;;;;;;19.00;12.13;;;;;;;;;;5055791;28;20213;-63
2021/03/31 12:39:54;;;;;;;15.47;12.40;;;;;;;;;;5055682;28;20533;-63
2021/03/31 12:42:20;;;;;;;15.30;9.27;;;;;;;;;;5055253;28;20218;-63
2021/03/31 12:44:46;;;;;;;21.30;15.70;;;;;;;;;;5055566;28;20458;-63
2021/03/31 12:47:15;;;;;;;26.20;19.47;;;;;;;;;;5055407;28;20636;-63
2021/03/31 12:49:40;;;;;;;17.87;12.57;;;;;;;;;;5055761;28;20212;-63
2021/03/31 12:52:09;;;;;;;12.57;9.63;;;;;;;;;;5054801;28;20546;-63
2021/03/31 12:57:00;;;;;;;11.00;9.87;;;;;;;;;;5055183;28;20452;-63
2021/03/31 12:59:25;;;;;;;13.53;10.80;;;;;;;;;;5055332;28;20229;-63
2021/03/31 13:01:51;;;;;;;12.80;10.23;;;;;;;;;;5055511;28;20534;-63
2021/03/31 13:04:17;;;;;;;12.17;10.83;;;;;;;;;;5055043;28;20221;-64
2021/03/31 13:06:42;;;;;;;11.13;9.63;;;;;;;;;;5055381;28;20236;-63
2021/03/31 13:09:08;;;;;;;13.17;10.50;;;;;;;;;;5052815;28;20609;-63
2021/03/31 13:11:34;;;;;;;13.00;9.40;;;;;;;;;;5035234;28;20225;-63
2021/03/31 13:14:26;;;;;;;12.87;9.40;;;;;;;;;;5035054;28;20222;-63
2021/03/31 13:24:42;;;;;;;12.77;10.90;;;;;;;;;;5035195;28;20448;-62
2021/03/31 13:29:45;;;;;;;12.67;9.97;;;;;;;;;;5055069;28;20452;-62
2021/03/31 13:32:22;;;;;;;11.67;9.57;;;;;;;;;;5054440;28;20220;-62
2021/03/31 13:34:52;;;;;;;11.90;8.77;;;;;;;;;;5051189;28;20955;-62
2021/03/31 13:37:23;;;;;;;12.37;8.70;;;;;;;;;;5053339;28;20455;-62
2021/03/31 13:39:53;;;;;;;11.60;9.90;;;;;;;;;;5053669;28;20474;-62
2021/03/31 13:42:20;;;;;;;10.40;8.40;;;;;;;;;;5054139;28;20952;-62
2021/03/31 13:44:46;;;;;;;15.07;9.70;;;;;;;;;;5054637;28;20459;-62
2021/03/31 13:47:16;;;;;;;13.37;9.47;;;;;;;;;;5054248;28;20464;-61
2021/03/31 13:49:52;;;;;;;12.97;9.70;;;;;;;;;;5054684;28;20750;-63
2021/03/31 13:52:23;;;;;;;13.67;10.37;;;;;;;;;;5053679;28;20550;-62
2021/03/31 13:54:51;;;;;;;10.93;9.17;;;;;;;;;;5054370;28;20866;-62
2021/03/31 13:57:20;;;;;;;11.70;9.47;;;;;;;;;;5054271;28;20490;-61
2021/03/31 13:59:48;;;;;;;13.70;10.07;;;;;;;;;;5053836;28;20476;-62
2021/03/31 14:02:14;;;;;;;12.60;10.00;;;;;;;;;;5053470;28;20539;-61
2021/03/31 14:04:39;;;;;;;10.90;8.40;;;;;;;;;;5052887;28;20547;-61
2021/03/31 14:07:05;;;;;;;10.83;9.33;;;;;;;;;;5052658;28;20221;-62
2021/03/31 14:09:30;;;;;;;11.17;9.87;;;;;;;;;;5053968;28;20213;-62
2021/03/31 14:11:55;;;;;;;11.03;9.50;;;;;;;;;;5054210;28;20249;-62
2021/03/31 14:14:21;;;;;;;10.33;8.43;;;;;;;;;;5053232;28;20232;-62
2021/03/31 14:19:40;;;;;;;11.47;8.93;;;;;;;;;;5050042;28;20221;-62
2021/03/31 14:22:06;;;;;;;10.00;8.47;;;;;;;;;;5053827;28;20471;-62
2021/03/31 14:24:32;;;;;;;16.53;9.60;;;;;;;;;;5053542;28;20474;-62
2021/03/31 14:26:58;;;;;;;11.03;9.43;;;;;;;;;;5053661;28;20672;-62
2021/03/31 14:29:23;;;;;;;13.60;9.13;;;;;;;;;;5053569;28;20225;-62
2021/03/31 14:31:49;;;;;;;10.93;9.70;;;;;;;;;;5053770;28;20470;-62
2021/03/31 14:34:14;;;;;;;10.23;8.53;;;;;;;;;;5052431;28;20225;-62
2021/03/31 14:36:39;;;;;;;13.20;8.50;;;;;;;;;;5053773;28;20685;-62
2021/03/31 14:39:08;;;;;;;11.30;8.17;;;;;;;;;;5053874;28;20220;-62
2021/03/31 14:41:35;;;;;;;12.50;8.23;;;;;;;;;;5053208;28;20235;-62
2021/03/31 14:44:00;;;;;;;12.60;9.50;;;;;;;;;;5053531;28;20529;-62
2021/03/31 14:46:26;;;;;;;13.10;9.00;;;;;;;;;;5052871;28;20456;-62
2021/03/31 14:48:51;;;;;;;14.03;9.07;;;;;;;;;;5053660;28;20233;-62
2021/03/31 14:51:20;;;;;;;9.43;8.27;;;;;;;;;;5068661;28;20328;-61
2021/03/31 14:56:45;;;;;;;12.50;8.63;;;;;;;;;;5054096;28;20947;-62